Sutter, California
Current Conditions -  °F | °C
As of 1:58 PM on Thursday 27 Nov 2014 (Local Time) from KBAB Reporting Station
Clear Clear  
Wind Chill: 66°   Ceiling: Unl
Heat Index: 66°   Visibility: 10mi
Dew Point: 48°   Wind: 1mph
Humidity: 52%   Direction: 40°NE
Pressure: 30.09"   Gusts: NA
Location:  39.16°N, 121.76°W
Report Text: KBAB 272158Z AUTO 04001KT 10SM CLR 19/09 A3009 RMK AO2 SLP266 T01870087 $
Loading
Personal Weather Stations






























Interactive Weather Map New forecast layout! Learn more

10-Day Weather Forecast

Advertisements
Track Severe Weather on mobile